Time;durP1;ratioP1;P1;durP2;ratioP2;P2;SDS_P1;SDS_P2;PMS_P1;PMS_P2;Temp;Humidity;BMP_temperature;BMP_pressure;BME280_temperature;BME280_humidity;BME280_pressure;Samples;Min_cycle;Max_cycle;Signal;HPM_P1;HPM_P2
2023/09/29 00:01:56;;;;;;;4.60;4.20;;;;;;;20.69;61.27;97420.31;4845590;29;20212;-85
2023/09/29 00:04:22;;;;;;;4.43;3.97;;;;;;;20.62;61.39;97408.59;4818962;29;20688;-85
2023/09/29 00:06:47;;;;;;;5.25;3.92;;;;;;;20.69;61.26;97407.09;4841995;29;20213;-85
2023/09/29 00:09:13;;;;;;;5.47;4.97;;;;;;;20.65;62.02;97395.56;4816510;29;20176;-85
2023/09/29 00:11:38;;;;;;;4.85;4.45;;;;;;;20.66;62.52;97396.34;4800939;29;20389;-85
2023/09/29 00:14:03;;;;;;;4.63;4.18;;;;;;;20.69;62.42;97393.09;4825506;29;20389;-85
2023/09/29 00:16:29;;;;;;;5.07;4.63;;;;;;;20.83;61.81;97409.63;4797929;29;20290;-85
2023/09/29 00:18:55;;;;;;;4.97;4.53;;;;;;;20.90;61.75;97404.66;4802578;29;20192;-85
2023/09/29 00:21:21;;;;;;;4.82;4.32;;;;;;;20.75;62.04;97368.84;4819448;29;20297;-84
2023/09/29 00:23:46;;;;;;;5.25;4.53;;;;;;;20.98;61.24;97402.38;4809566;29;20186;-85
2023/09/29 00:26:12;;;;;;;4.82;4.43;;;;;;;20.72;61.26;97382.66;4816470;29;20684;-85
2023/09/29 00:28:37;;;;;;;4.68;3.90;;;;;;;20.83;61.24;97408.84;4816492;29;20186;-84
2023/09/29 00:31:04;;;;;;;4.47;4.07;;;;;;;20.84;61.31;97416.50;4802253;29;20239;-85
2023/09/29 00:33:30;;;;;;;4.53;4.13;;;;;;;20.76;61.48;97406.66;4814836;29;20380;-85
2023/09/29 00:35:58;;;;;;;5.07;4.25;;;;;;;20.74;61.42;97401.66;4803412;29;20167;-85
2023/09/29 00:38:24;;;;;;;5.47;4.97;;;;;;;20.69;61.74;97415.03;4813582;29;20202;-85
2023/09/29 00:40:52;;;;;;;5.68;4.43;;;;;;;20.67;61.79;97414.56;4801013;29;20161;-85
2023/09/29 00:43:17;;;;;;;5.07;4.68;;;;;;;20.53;62.20;97408.53;4817225;29;20285;-84
2023/09/29 00:45:43;;;;;;;5.10;4.63;;;;;;;20.70;62.16;97421.88;4805575;29;20706;-85
2023/09/29 00:48:10;;;;;;;6.00;4.30;;;;;;;20.61;61.91;97414.94;4797892;29;20688;-85
2023/09/29 00:50:37;;;;;;;4.50;4.10;;;;;;;20.40;61.66;97389.78;4823582;29;20293;-85
2023/09/29 00:53:13;;;;;;;5.40;4.20;;;;;;;20.55;62.57;97424.88;4815925;29;20196;-85
2023/09/29 00:55:41;;;;;;;4.70;3.95;;;;;;;20.57;62.26;97425.38;4837585;29;20614;-84
2023/09/29 00:58:07;;;;;;;4.85;4.20;;;;;;;20.58;62.44;97413.72;4834312;29;20213;-85
2023/09/29 01:00:36;;;;;;;5.28;4.80;;;;;;;20.51;62.67;97415.97;4793230;29;20106;-85
2023/09/29 01:03:08;;;;;;;5.43;4.03;;;;;;;20.56;62.78;97415.84;4811177;29;20274;-84
2023/09/29 01:05:36;;;;;;;4.63;4.15;;;;;;;20.61;62.34;97407.00;4806158;29;20288;-84
2023/09/29 01:08:04;;;;;;;4.78;4.38;;;;;;;20.38;62.28;97381.38;4825403;29;20209;-85
2023/09/29 01:10:29;;;;;;;4.72;4.32;;;;;;;20.51;62.25;97405.41;4834781;29;20217;-85
2023/09/29 01:12:55;;;;;;;4.53;4.20;;;;;;;20.53;61.64;97408.53;4815688;29;20228;-85
2023/09/29 01:15:20;;;;;;;4.90;4.50;;;;;;;20.49;61.44;97403.06;4800306;29;20204;-85
2023/09/29 01:17:46;;;;;;;5.03;4.47;;;;;;;20.47;60.87;97388.59;4821113;29;20177;-84
2023/09/29 01:20:24;;;;;;;4.65;4.07;;;;;;;20.56;61.25;97390.19;4816530;29;20303;-85
2023/09/29 01:22:50;;;;;;;4.40;4.00;;;;;;;20.36;61.63;97393.34;4826430;29;20542;-84
2023/09/29 01:25:17;;;;;;;4.78;4.13;;;;;;;20.43;62.14;97401.63;4808651;29;20201;-85
2023/09/29 01:27:42;;;;;;;4.65;4.25;;;;;;;20.51;61.57;97397.47;4819280;29;20216;-85
2023/09/29 01:30:09;;;;;;;4.55;4.15;;;;;;;20.57;61.36;97398.91;4830947;29;20226;-85
2023/09/29 01:32:34;;;;;;;5.57;4.47;;;;;;;20.52;61.66;97383.94;4807549;29;20680;-84
2023/09/29 01:35:00;;;;;;;5.70;4.20;;;;;;;20.46;62.20;97389.66;4806657;29;20206;-85
2023/09/29 01:37:25;;;;;;;4.35;4.03;;;;;;;20.43;62.23;97380.47;4807875;29;20198;-85
2023/09/29 01:39:51;;;;;;;4.93;4.53;;;;;;;20.39;62.13;97372.38;4827952;29;20213;-84
2023/09/29 01:42:16;;;;;;;4.55;4.15;;;;;;;20.45;62.52;97377.53;4805134;29;20190;-85
2023/09/29 01:44:42;;;;;;;4.30;3.90;;;;;;;20.55;62.40;97383.34;4838856;29;20217;-85
2023/09/29 01:47:08;;;;;;;4.32;3.92;;;;;;;20.42;62.38;97363.03;4829629;29;20326;-85
2023/09/29 01:49:33;;;;;;;4.60;4.20;;;;;;;20.58;62.20;97377.44;4830113;29;20197;-85
2023/09/29 01:51:59;;;;;;;4.22;3.83;;;;;;;20.62;62.66;97382.94;4827098;29;20115;-85
2023/09/29 01:54:24;;;;;;;4.32;4.00;;;;;;;20.50;63.05;97353.59;4838665;29;20196;-85
2023/09/29 01:56:49;;;;;;;4.43;4.03;;;;;;;20.64;63.01;97370.19;4829423;29;20278;-85
2023/09/29 01:59:15;;;;;;;4.82;4.35;;;;;;;20.71;63.34;97375.03;4827123;29;20298;-85
2023/09/29 02:01:40;;;;;;;4.80;4.30;;;;;;;20.70;63.08;97361.03;4806194;29;20201;-85
2023/09/29 02:04:06;;;;;;;4.50;4.20;;;;;;;20.71;62.95;97365.22;4817925;29;20202;-85
2023/09/29 02:06:31;;;;;;;5.28;4.45;;;;;;;20.73;63.15;97370.22;4802692;29;20269;-85
2023/09/29 02:08:57;;;;;;;4.70;4.30;;;;;;;20.75;62.65;97370.69;4797972;29;20289;-85
2023/09/29 02:11:22;;;;;;;4.82;4.40;;;;;;;20.79;62.79;97378.81;4836133;29;20308;-85
2023/09/29 02:13:48;;;;;;;4.75;4.18;;;;;;;20.81;62.64;97376.63;4820631;29;20365;-85
2023/09/29 02:16:15;;;;;;;4.97;4.57;;;;;;;20.79;63.15;97376.94;4824068;29;20198;-85
2023/09/29 02:18:41;;;;;;;4.50;4.10;;;;;;;20.86;63.24;97382.56;4842197;29;20373;-85
2023/09/29 02:21:07;;;;;;;4.13;3.83;;;;;;;20.70;63.04;97354.94;4822733;29;20168;-85
2023/09/29 02:23:38;;;;;;;4.82;4.43;;;;;;;20.75;62.94;97360.91;4842626;29;20726;-85
2023/09/29 02:26:05;;;;;;;5.57;4.63;;;;;;;20.95;62.39;97382.59;4834569;29;20204;-85
2023/09/29 02:28:32;;;;;;;4.30;3.90;;;;;;;20.92;62.63;97386.66;4828735;29;20275;-85
2023/09/29 02:31:02;;;;;;;5.75;4.60;;;;;;;20.87;62.46;97370.91;4821109;29;20209;-85
2023/09/29 02:33:28;;;;;;;4.90;4.50;;;;;;;20.87;62.79;97378.84;4820534;29;20333;-85
2023/09/29 02:35:53;;;;;;;4.60;4.20;;;;;;;20.89;62.48;97389.91;4839304;29;20365;-85
2023/09/29 02:38:19;;;;;;;4.80;4.40;;;;;;;20.74;62.86;97364.59;4825296;29;20335;-85
2023/09/29 02:40:47;;;;;;;4.13;3.83;;;;;;;20.93;62.53;97388.19;4805152;29;20221;-85
2023/09/29 02:43:12;;;;;;;4.70;4.30;;;;;;;20.94;62.41;97388.97;4824388;29;20083;-85
2023/09/29 02:45:40;;;;;;;4.78;4.25;;;;;;;20.74;62.70;97361.97;4826745;29;20249;-85
2023/09/29 02:48:06;;;;;;;4.68;4.22;;;;;;;20.70;62.81;97358.38;4811323;29;20652;-85
2023/09/29 02:50:34;;;;;;;4.32;3.92;;;;;;;20.78;62.67;97372.72;4837161;29;20218;-85
2023/09/29 02:53:05;;;;;;;4.57;4.25;;;;;;;20.89;62.45;97391.78;4813240;29;20103;-85
2023/09/29 02:55:30;;;;;;;4.57;4.18;;;;;;;20.84;62.81;97387.38;4793488;29;20559;-84
2023/09/29 02:57:56;;;;;;;4.65;4.00;;;;;;;20.84;62.42;97384.75;4831967;29;20464;-84
2023/09/29 03:00:27;;;;;;;4.57;4.18;;;;;;;20.89;61.94;97391.78;4805359;29;20672;-85
2023/09/29 03:02:52;;;;;;;4.90;4.40;;;;;;;20.86;62.36;97381.78;4824899;29;20110;-85
2023/09/29 03:05:20;;;;;;;4.50;4.10;;;;;;;20.84;62.18;97382.09;4817098;29;20603;-84
2023/09/29 03:07:46;;;;;;;4.60;4.13;;;;;;;20.69;61.99;97356.81;4819257;29;20285;-85
2023/09/29 03:10:15;;;;;;;4.97;4.50;;;;;;;20.71;61.93;97354.63;4810927;29;20332;-84
2023/09/29 03:12:42;;;;;;;4.70;4.10;;;;;;;20.76;62.25;97362.44;4820734;29;20213;-85
2023/09/29 03:15:09;;;;;;;5.35;4.43;;;;;;;20.87;62.08;97378.84;4815608;29;20175;-84
2023/09/29 03:17:36;;;;;;;5.20;4.70;;;;;;;20.84;61.52;97363.56;4836132;29;20667;-85
2023/09/29 03:20:08;;;;;;;4.95;4.45;;;;;;;20.87;61.71;97373.53;4834314;29;20704;-84
2023/09/29 03:22:36;;;;;;;4.40;3.92;;;;;;;20.69;61.35;97353.41;4820104;29;20326;-84
2023/09/29 03:25:02;;;;;;;5.00;4.45;;;;;;;20.72;61.87;97368.66;4803805;29;20181;-85
2023/09/29 03:27:27;;;;;;;4.32;4.00;;;;;;;20.72;61.55;97372.09;4812857;29;20306;-84
2023/09/29 03:29:52;;;;;;;4.80;4.40;;;;;;;20.70;62.10;97379.56;4822788;29;20240;-84
2023/09/29 03:32:18;;;;;;;4.55;4.15;;;;;;;20.68;61.83;97378.28;4831455;29;20087;-85
2023/09/29 03:34:43;;;;;;;4.20;3.80;;;;;;;20.62;62.15;97367.06;4833731;29;20266;-85
2023/09/29 03:37:08;;;;;;;4.68;4.20;;;;;;;20.64;62.27;97364.09;4802300;29;20179;-85
2023/09/29 03:39:34;;;;;;;5.07;4.35;;;;;;;20.66;62.17;97375.94;4827872;29;20637;-85
2023/09/29 03:41:59;;;;;;;5.13;4.03;;;;;;;20.63;62.34;97375.75;4833504;29;20217;-86
2023/09/29 03:44:25;;;;;;;4.93;4.43;;;;;;;20.65;61.99;97377.03;4815816;29;20296;-85
2023/09/29 03:46:50;;;;;;;4.95;4.28;;;;;;;20.62;62.24;97379.50;4835019;29;20436;-85
2023/09/29 03:49:15;;;;;;;4.50;4.10;;;;;;;20.61;62.15;97381.31;4825725;29;20197;-85
2023/09/29 03:51:44;;;;;;;5.00;4.35;;;;;;;20.52;61.98;97378.66;4808400;29;20174;-85
2023/09/29 03:54:09;;;;;;;4.50;4.10;;;;;;;20.54;61.99;97379.13;4806522;29;20373;-85
2023/09/29 03:56:35;;;;;;;4.80;4.40;;;;;;;20.59;61.86;97404.66;4827769;29;20751;-84
2023/09/29 03:59:00;;;;;;;4.72;4.32;;;;;;;20.58;61.74;97400.47;4795875;29;20293;-85
2023/09/29 04:01:27;;;;;;;5.30;4.10;;;;;;;20.47;62.20;97399.94;4819516;29;20265;-85
2023/09/29 04:03:54;;;;;;;4.95;4.55;;;;;;;20.33;62.32;97386.78;4828396;29;20171;-85
2023/09/29 04:06:19;;;;;;;4.40;4.00;;;;;;;20.39;62.68;97390.88;4816684;29;20298;-85
2023/09/29 04:08:46;;;;;;;5.47;4.63;;;;;;;20.38;62.31;97391.19;4803964;29;20166;-84
2023/09/29 04:11:12;;;;;;;4.85;4.45;;;;;;;20.33;62.09;97386.78;4833226;29;20175;-85
2023/09/29 04:13:38;;;;;;;4.28;3.92;;;;;;;20.33;62.73;97388.66;4815390;29;20333;-85
2023/09/29 04:16:07;;;;;;;4.88;4.43;;;;;;;20.39;62.58;97393.53;4815080;29;20366;-84
2023/09/29 04:18:33;;;;;;;4.80;4.18;;;;;;;20.34;62.28;97391.00;4801972;29;20311;-85
2023/09/29 04:21:02;;;;;;;4.47;4.00;;;;;;;20.34;62.28;97391.00;4817833;29;20684;-84
2023/09/29 04:23:28;;;;;;;4.30;3.95;;;;;;;20.37;62.48;97394.91;4814032;29;20288;-85
2023/09/29 04:25:54;;;;;;;4.85;4.45;;;;;;;20.40;62.37;97394.31;4823117;29;20198;-85
2023/09/29 04:28:19;;;;;;;4.43;4.03;;;;;;;20.42;62.50;97394.00;4826418;29;20241;-85
2023/09/29 04:30:45;;;;;;;4.88;4.47;;;;;;;20.47;62.54;97393.88;4814480;29;20642;-85
2023/09/29 04:33:10;;;;;;;4.55;4.15;;;;;;;20.43;62.84;97391.06;4813196;29;20299;-85
2023/09/29 04:35:35;;;;;;;5.35;4.40;;;;;;;20.38;62.33;97383.25;4795055;29;20214;-85
2023/09/29 04:38:01;;;;;;;4.57;4.18;;;;;;;20.52;62.61;97404.31;4805491;29;20198;-85
2023/09/29 04:40:27;;;;;;;5.13;4.57;;;;;;;20.48;62.27;97388.28;4824090;29;20752;-84
2023/09/29 04:42:52;;;;;;;4.07;3.78;;;;;;;20.31;62.98;97351.94;4819806;29;20227;-85
2023/09/29 04:45:21;;;;;;;4.97;4.55;;;;;;;20.46;63.15;97364.00;4833903;29;20619;-85
2023/09/29 04:47:46;;;;;;;4.82;4.40;;;;;;;20.54;63.06;97359.81;4811744;29;20214;-84
2023/09/29 04:50:14;;;;;;;5.55;4.07;;;;;;;20.67;62.79;97374.88;4821551;29;20630;-85
2023/09/29 04:52:39;;;;;;;4.78;4.38;;;;;;;20.80;62.97;97383.00;4818173;29;20602;-84
2023/09/29 04:55:05;;;;;;;4.75;4.35;;;;;;;20.89;62.66;97389.13;4833742;29;20246;-85
2023/09/29 04:57:31;;;;;;;4.15;3.85;;;;;;;20.89;62.62;97379.31;4826886;29;20631;-85
2023/09/29 04:59:56;;;;;;;5.18;4.20;;;;;;;20.86;62.04;97365.91;4806972;29;20174;-85
2023/09/29 05:02:24;;;;;;;4.97;4.47;;;;;;;20.87;62.20;97360.31;4825722;29;20324;-85
2023/09/29 05:04:50;;;;;;;5.18;4.13;;;;;;;20.98;62.33;97371.38;4807515;29;20322;-84
2023/09/29 05:07:15;;;;;;;5.97;4.50;;;;;;;21.00;62.42;97374.50;4808685;29;20387;-85
2023/09/29 05:09:40;;;;;;;5.20;4.70;;;;;;;20.93;62.25;97347.72;4811700;29;20206;-85
2023/09/29 05:12:06;;;;;;;5.45;4.38;;;;;;;21.09;61.53;97369.22;4804233;29;20213;-84
2023/09/29 05:14:32;;;;;;;6.13;4.93;;;;;;;21.00;61.81;97341.97;4797270;29;20294;-84
2023/09/29 05:16:58;;;;;;;4.85;4.45;;;;;;;21.16;61.61;97353.66;4801123;29;20193;-85
2023/09/29 05:19:23;;;;;;;5.03;4.53;;;;;;;21.20;61.97;97369.72;4819384;29;20332;-84
2023/09/29 05:21:49;;;;;;;5.72;5.10;;;;;;;21.25;61.68;97380.16;4795458;29;20341;-85
2023/09/29 05:24:14;;;;;;;5.53;5.03;;;;;;;21.41;60.84;97373.34;4818385;29;20208;-84
2023/09/29 05:26:39;;;;;;;4.90;4.40;;;;;;;21.46;60.70;97373.22;4811848;29;20202;-85
2023/09/29 05:29:05;;;;;;;5.30;4.80;;;;;;;21.45;60.71;97368.97;4814753;29;20637;-85
2023/09/29 05:31:30;;;;;;;5.50;4.65;;;;;;;21.42;60.44;97353.72;4824090;29;20221;-84
2023/09/29 05:33:56;;;;;;;4.60;4.20;;;;;;;21.58;60.39;97383.22;4804487;29;20261;-84
2023/09/29 05:36:21;;;;;;;6.47;4.43;;;;;;;21.61;60.29;97379.16;4822222;29;20190;-85
2023/09/29 05:38:46;;;;;;;5.15;4.05;;;;;;;21.63;59.60;97372.47;4810663;29;20158;-84
2023/09/29 05:41:12;;;;;;;6.75;4.30;;;;;;;21.71;59.86;97381.50;4819722;29;20313;-84
2023/09/29 05:43:37;;;;;;;4.78;4.28;;;;;;;21.76;59.63;97378.69;4798668;29;20276;-85
2023/09/29 05:46:02;;;;;;;4.35;3.95;;;;;;;21.84;59.30;97388.50;4833412;29;20280;-84
2023/09/29 05:48:28;;;;;;;7.15;4.07;;;;;;;21.90;59.09;97389.16;4840735;29;20747;-84
2023/09/29 05:50:53;;;;;;;4.50;4.10;;;;;;;21.96;59.08;97387.88;4819513;29;20329;-84
2023/09/29 05:53:19;;;;;;;4.35;3.95;;;;;;;21.95;59.33;97393.50;4823305;29;20266;-84
2023/09/29 05:55:45;;;;;;;4.90;4.40;;;;;;;21.95;59.12;97382.88;4810479;29;20245;-84
2023/09/29 05:58:10;;;;;;;4.68;4.28;;;;;;;21.99;58.89;97389.16;4810590;29;20585;-84
2023/09/29 06:00:36;;;;;;;4.10;3.70;;;;;;;22.03;59.24;97395.38;4816648;29;20295;-84
2023/09/29 06:03:02;;;;;;;4.38;3.97;;;;;;;21.98;59.12;97384.91;4822400;29;20266;-84
2023/09/29 06:05:28;;;;;;;4.30;3.95;;;;;;;22.03;59.27;97385.53;4792772;29;20234;-84
2023/09/29 06:07:54;;;;;;;4.28;3.88;;;;;;;22.08;58.97;97376.63;4830898;29;20242;-85
2023/09/29 06:10:19;;;;;;;5.80;3.97;;;;;;;22.18;58.12;97378.97;4829021;29;20241;-85
2023/09/29 06:12:45;;;;;;;5.18;4.18;;;;;;;22.04;58.31;97359.81;4816751;29;20403;-85
2023/09/29 06:15:11;;;;;;;4.45;4.05;;;;;;;22.14;58.36;97386.00;4796852;29;20280;-84
2023/09/29 06:17:39;;;;;;;4.57;4.10;;;;;;;22.02;58.13;97380.53;4810912;29;20200;-84
2023/09/29 06:20:05;;;;;;;4.75;3.72;;;;;;;22.01;59.22;97398.31;4808268;29;20288;-84
2023/09/29 06:22:32;;;;;;;4.05;3.67;;;;;;;22.13;59.08;97410.19;4800188;29;20200;-85
2023/09/29 06:24:57;;;;;;;5.30;4.10;;;;;;;22.06;59.15;97400.03;4812157;29;20213;-84
2023/09/29 06:27:23;;;;;;;4.47;4.07;;;;;;;22.16;59.65;97410.34;4819456;29;20648;-84
2023/09/29 06:29:50;;;;;;;5.90;4.50;;;;;;;22.17;59.72;97409.22;4809375;29;20706;-84
2023/09/29 06:32:16;;;;;;;4.40;4.00;;;;;;;22.21;59.73;97410.16;4801378;29;20246;-85
2023/09/29 06:34:42;;;;;;;4.72;4.32;;;;;;;22.26;59.12;97414.53;4824217;29;20190;-84
2023/09/29 06:37:08;;;;;;;4.45;4.05;;;;;;;22.29;58.96;97405.97;4829930;29;20182;-85
2023/09/29 06:39:34;;;;;;;4.95;4.47;;;;;;;22.24;58.98;97406.91;4829869;29;20695;-85
2023/09/29 06:41:59;;;;;;;4.60;4.20;;;;;;;22.33;59.21;97422.81;4829051;29;20202;-85
2023/09/29 06:44:24;;;;;;;5.10;4.60;;;;;;;22.30;59.17;97412.84;4817157;29;20201;-84
2023/09/29 06:46:50;;;;;;;5.15;4.75;;;;;;;22.35;59.48;97411.91;4835826;29;20221;-84
2023/09/29 06:49:15;;;;;;;5.13;4.63;;;;;;;22.21;59.39;97394.25;4801625;29;20273;-85
2023/09/29 06:51:41;;;;;;;4.82;4.25;;;;;;;22.34;59.68;97391.75;4833601;29;20295;-84
2023/09/29 06:54:06;;;;;;;4.90;4.50;;;;;;;22.46;59.71;97383.91;4800302;29;20193;-84
2023/09/29 06:56:31;;;;;;;6.78;4.60;;;;;;;22.50;59.72;97387.50;4830879;29;20196;-85
2023/09/29 06:58:57;;;;;;;5.03;4.53;;;;;;;22.69;58.44;97384.47;4828389;29;20189;-85
2023/09/29 07:01:23;;;;;;;5.95;4.40;;;;;;;22.88;58.20;97384.09;4834792;29;20193;-85
2023/09/29 07:03:49;;;;;;;5.28;4.78;;;;;;;22.88;58.92;97373.47;4835254;29;20207;-85
2023/09/29 07:06:15;;;;;;;5.13;4.65;;;;;;;23.11;57.74;97373.22;4846780;29;20273;-85
2023/09/29 07:08:40;;;;;;;4.75;4.38;;;;;;;23.27;57.84;97381.41;4834927;29;20066;-85
2023/09/29 07:11:05;;;;;;;5.45;4.13;;;;;;;23.42;57.28;97364.13;4821676;29;20297;-86
2023/09/29 07:13:31;;;;;;;5.22;4.70;;;;;;;23.70;56.54;97382.97;4822750;29;20316;-85
2023/09/29 07:15:56;;;;;;;5.95;4.50;;;;;;;23.87;56.07;97374.09;4830210;29;20198;-85
2023/09/29 07:18:22;;;;;;;5.40;4.20;;;;;;;23.92;54.88;97365.94;4823305;29;20668;-85
2023/09/29 07:20:52;;;;;;;5.40;4.18;;;;;;;24.03;54.96;97369.75;4825755;29;20193;-85
2023/09/29 07:23:21;;;;;;;5.63;4.05;;;;;;;23.95;54.70;97357.31;4822216;29;20218;-85
2023/09/29 07:25:46;;;;;;;4.15;3.85;;;;;;;24.19;53.93;97372.56;4812382;29;20261;-84
2023/09/29 07:28:13;;;;;;;4.18;3.78;;;;;;;24.57;52.82;97370.78;4820315;29;20318;-85
2023/09/29 07:30:41;;;;;;;4.93;4.30;;;;;;;24.74;51.99;97354.59;4801647;29;20634;-85
2023/09/29 07:33:06;;;;;;;4.57;4.00;;;;;;;24.98;51.65;97375.13;4810882;29;20756;-85
2023/09/29 07:35:31;;;;;;;4.10;3.65;;;;;;;25.15;51.11;97382.09;4813570;29;20196;-85
2023/09/29 07:37:59;;;;;;;5.20;4.72;;;;;;;25.02;50.96;97369.91;4793115;29;20626;-85
2023/09/29 07:40:24;;;;;;;4.47;4.07;;;;;;;25.04;50.50;97373.03;4813999;29;20167;-85
2023/09/29 07:42:49;;;;;;;4.38;4.07;;;;;;;25.04;51.30;97379.13;4816229;29;20636;-84
2023/09/29 07:45:15;;;;;;;5.50;3.72;;;;;;;24.90;51.12;97372.56;4797702;29;21300;-82
2023/09/29 07:47:41;;;;;;;4.60;4.15;;;;;;;24.95;51.24;97386.47;4816702;29;20296;-84
2023/09/29 07:50:07;;;;;;;5.53;3.78;;;;;;;25.19;50.86;97391.00;4826634;29;20197;-86
2023/09/29 07:52:37;;;;;;;4.05;3.75;;;;;;;25.41;50.52;97397.78;4790318;29;20199;-85
2023/09/29 07:55:02;;;;;;;4.22;3.83;;;;;;;25.60;49.94;97407.03;4807084;29;20292;-86
2023/09/29 07:57:28;;;;;;;4.75;3.80;;;;;;;25.60;49.64;97394.50;4805792;29;20174;-86
2023/09/29 07:59:53;;;;;;;4.10;3.70;;;;;;;25.60;50.46;97407.84;4810119;29;20668;-84
2023/09/29 08:02:19;;;;;;;4.43;4.03;;;;;;;25.45;49.60;97397.88;4788908;29;20202;-86
2023/09/29 08:04:44;;;;;;;4.38;3.50;;;;;;;25.67;49.66;97425.13;4801871;29;20217;-86
2023/09/29 08:07:11;;;;;;;4.68;4.28;;;;;;;25.73;50.60;97429.13;4829934;29;20710;-86
2023/09/29 08:09:37;;;;;;;4.60;4.20;;;;;;;25.78;50.87;97426.22;4803933;29;20280;-85
2023/09/29 08:12:03;;;;;;;4.55;4.10;;;;;;;25.66;50.47;97424.38;4806648;29;20237;-85
2023/09/29 08:14:30;;;;;;;4.53;4.13;;;;;;;25.83;49.15;97435.91;4832926;29;20262;-86
2023/09/29 08:16:55;;;;;;;4.45;4.10;;;;;;;25.83;49.74;97433.22;4827867;29;20312;-86
2023/09/29 08:19:21;;;;;;;4.10;3.80;;;;;;;26.02;49.37;97435.31;4802492;29;20279;-85
2023/09/29 08:21:47;;;;;;;5.25;3.72;;;;;;;25.96;49.98;97438.22;4816474;29;20210;-86
2023/09/29 08:24:13;;;;;;;5.07;4.05;;;;;;;25.98;50.06;97438.66;4800110;29;20294;-86
2023/09/29 08:26:38;;;;;;;5.78;3.92;;;;;;;25.98;49.46;97433.31;4803484;29;20553;-86
2023/09/29 08:29:08;;;;;;;5.57;4.05;;;;;;;26.10;49.09;97439.72;4816104;29;20101;-85
2023/09/29 08:31:34;;;;;;;4.15;3.80;;;;;;;25.82;49.21;97437.78;4790112;29;20179;-86
2023/09/29 08:33:59;;;;;;;4.13;3.72;;;;;;;26.50;48.48;97444.97;4803366;29;20174;-86
2023/09/29 08:36:25;;;;;;;4.82;4.43;;;;;;;26.52;48.29;97439.28;4810723;29;20147;-85
2023/09/29 08:39:01;;;;;;;4.22;3.83;;;;;;;26.41;47.63;97416.88;4825915;29;20214;-86
2023/09/29 08:41:27;;;;;;;5.00;4.20;;;;;;;26.38;47.19;97412.22;4801647;29;20098;-85
2023/09/29 08:43:53;;;;;;;5.45;4.95;;;;;;;26.81;46.75;97435.47;4807388;29;20214;-84
2023/09/29 08:46:19;;;;;;;4.25;3.92;;;;;;;26.95;47.42;97432.34;4817769;29;20168;-86
2023/09/29 08:48:46;;;;;;;5.00;4.50;;;;;;;27.00;46.64;97418.72;4808567;29;20213;-86
2023/09/29 08:51:12;;;;;;;4.15;3.75;;;;;;;27.17;47.59;97438.97;4812846;29;20209;-86
2023/09/29 08:53:40;;;;;;;4.40;4.05;;;;;;;27.18;46.10;97432.53;4801107;29;20114;-86
2023/09/29 08:56:11;;;;;;;4.43;4.03;;;;;;;27.12;47.02;97430.44;4802159;29;20202;-85
2023/09/29 08:58:36;;;;;;;4.20;3.90;;;;;;;26.74;47.81;97431.84;4813298;29;20194;-85
2023/09/29 09:01:03;;;;;;;4.60;4.20;;;;;;;26.95;47.47;97436.94;4816577;29;20203;-86
2023/09/29 09:03:28;;;;;;;5.70;4.13;;;;;;;26.89;48.12;97417.72;4820776;29;20204;-85
2023/09/29 09:05:55;;;;;;;4.32;3.92;;;;;;;26.81;47.83;97426.69;4799745;29;20227;-86
2023/09/29 09:08:21;;;;;;;4.38;3.88;;;;;;;26.89;48.41;97431.84;4830392;29;20194;-86
2023/09/29 09:10:47;;;;;;;4.70;4.00;;;;;;;26.96;47.97;97449.19;4831119;29;20210;-86
2023/09/29 09:13:12;;;;;;;4.85;3.90;;;;;;;26.93;47.99;97441.84;4797241;29;20670;-86
2023/09/29 09:15:37;;;;;;;5.00;4.40;;;;;;;26.61;48.01;97453.25;4825316;29;20181;-85
2023/09/29 09:18:03;;;;;;;4.20;3.80;;;;;;;27.10;47.40;97457.53;4814800;29;20210;-86
2023/09/29 09:20:29;;;;;;;4.65;3.83;;;;;;;27.28;47.17;97439.25;4813541;29;20633;-87
2023/09/29 09:22:57;;;;;;;4.13;3.83;;;;;;;27.33;47.04;97449.66;4799336;29;20360;-86
2023/09/29 09:25:31;;;;;;;4.15;3.75;;;;;;;27.61;47.04;97452.22;4824679;29;20186;-87
2023/09/29 09:27:56;;;;;;;4.50;3.90;;;;;;;27.69;46.50;97449.66;4822339;29;20196;-85
2023/09/29 09:30:23;;;;;;;4.25;3.85;;;;;;;27.73;45.88;97459.34;4816457;29;20588;-87
2023/09/29 09:32:49;;;;;;;4.53;4.13;;;;;;;27.60;46.59;97450.63;4813423;29;20579;-86
2023/09/29 09:35:26;;;;;;;5.47;4.05;;;;;;;27.94;45.00;97455.56;4837617;29;20185;-83
2023/09/29 09:37:52;;;;;;;4.80;3.60;;;;;;;27.55;47.29;97463.53;4838082;29;20699;-86
2023/09/29 09:40:19;;;;;;;5.57;3.67;;;;;;;27.60;46.62;97439.19;4817040;29;20279;-86
2023/09/29 09:42:46;;;;;;;3.75;3.45;;;;;;;27.64;45.48;97467.56;4808293;29;20308;-86
2023/09/29 09:45:12;;;;;;;4.38;3.80;;;;;;;27.54;45.30;97478.00;4834284;29;20580;-84
2023/09/29 09:47:37;;;;;;;3.42;3.15;;;;;;;27.55;45.30;97450.91;4792762;29;20179;-86
2023/09/29 09:50:06;;;;;;;4.45;3.90;;;;;;;27.41;46.36;97464.75;4829773;29;20162;-85
2023/09/29 09:52:31;;;;;;;4.18;3.88;;;;;;;27.41;45.93;97472.00;4810704;29;20644;-85
2023/09/29 09:55:10;;;;;;;4.63;3.83;;;;;;;27.30;46.73;97468.31;4827334;29;20720;-87
2023/09/29 09:57:39;;;;;;;5.72;4.15;;;;;;;27.32;47.35;97466.84;4816478;29;20238;-87
2023/09/29 10:00:10;;;;;;;3.80;3.50;;;;;;;27.50;47.38;97471.81;4816274;29;20166;-87
2023/09/29 10:02:43;;;;;;;3.67;3.38;;;;;;;27.81;45.60;97465.59;4809773;29;20700;-87
2023/09/29 10:05:22;;;;;;;4.10;3.70;;;;;;;27.66;46.39;97467.22;4912362;23;20279;-86
2023/09/29 10:07:49;;;;;;;4.63;3.42;;;;;;;27.77;46.83;97473.56;4835628;29;20288;-86
2023/09/29 10:10:42;;;;;;;3.72;3.35;;;;;;;28.44;44.97;97467.22;4874668;29;20145;-86
2023/09/29 10:13:14;;;;;;;3.60;3.22;;;;;;;28.72;44.74;97467.00;4839344;29;20220;-87
2023/09/29 10:15:43;;;;;;;3.55;3.25;;;;;;;28.99;43.70;97466.28;4837589;29;20220;-85
2023/09/29 10:18:17;;;;;;;3.30;3.00;;;;;;;28.84;43.87;97458.00;4835932;29;20257;-85
2023/09/29 10:20:44;;;;;;;5.05;3.83;;;;;;;28.45;44.51;97471.47;4863049;23;20370;-84
2023/09/29 10:23:16;;;;;;;3.90;3.50;;;;;;;28.33;44.39;97463.59;4870558;29;20208;-84
2023/09/29 10:25:59;;;;;;;5.03;3.65;;;;;;;28.68;44.30;97470.75;4891869;28;20572;-86
2023/09/29 10:28:35;;;;;;;5.63;3.42;;;;;;;28.82;43.15;97467.53;4862220;29;20284;-87
2023/09/29 10:31:15;;;;;;;5.55;3.85;;;;;;;28.89;43.37;97464.97;4876933;29;20206;-86
2023/09/29 10:33:54;;;;;;;3.75;3.30;;;;;;;29.19;42.69;97470.47;4855362;29;20287;-86
2023/09/29 10:36:25;;;;;;;3.78;3.47;;;;;;;29.09;43.60;97463.00;4864426;29;20200;-86
2023/09/29 10:38:57;;;;;;;3.80;3.33;;;;;;;28.64;43.36;97461.88;4862069;28;20215;-87
2023/09/29 10:41:23;;;;;;;3.60;3.30;;;;;;;28.29;44.54;97473.44;4865488;29;20523;-86
2023/09/29 10:43:50;;;;;;;4.18;3.78;;;;;;;28.00;43.92;97464.84;4854326;29;20211;-86
2023/09/29 10:46:17;;;;;;;4.30;3.33;;;;;;;28.17;42.84;97472.50;4847673;29;20275;-86
2023/09/29 10:48:53;;;;;;;3.53;3.10;;;;;;;28.44;43.07;97464.56;4870518;29;20266;-84
2023/09/29 10:51:37;;;;;;;4.38;3.25;;;;;;;28.57;42.54;97471.34;4861924;29;20476;-87
2023/09/29 10:54:07;;;;;;;3.93;3.43;;;;;;;28.87;41.44;97459.19;4868694;29;20086;-86
2023/09/29 10:56:34;;;;;;;4.18;3.40;;;;;;;29.24;41.11;97472.84;4862949;29;20455;-87
2023/09/29 10:59:09;;;;;;;3.58;3.33;;;;;;;29.37;41.26;97459.97;4883639;28;20263;-85
2023/09/29 11:01:35;;;;;;;3.50;3.08;;;;;;;29.07;42.01;97479.44;4852107;29;20174;-87
2023/09/29 11:04:02;;;;;;;3.85;3.22;;;;;;;28.80;41.86;97483.19;4845911;29;20203;-86
2023/09/29 11:06:31;;;;;;;3.35;3.15;;;;;;;28.46;43.46;97491.75;4814733;29;20405;-85
2023/09/29 11:08:58;;;;;;;3.50;3.20;;;;;;;27.90;43.93;97490.28;4830211;29;20295;-86
2023/09/29 11:11:33;;;;;;;4.63;3.92;;;;;;;27.56;45.45;97492.59;4853381;29;20174;-87
2023/09/29 11:13:58;;;;;;;3.42;3.13;;;;;;;27.42;45.93;97495.72;4861872;29;20213;-86
2023/09/29 11:16:28;;;;;;;4.78;3.67;;;;;;;27.02;46.41;97499.31;4837545;29;20173;-83
2023/09/29 11:18:56;;;;;;;5.20;4.18;;;;;;;27.03;47.80;97514.25;4861064;29;20699;-87
2023/09/29 11:21:35;;;;;;;5.45;3.70;;;;;;;27.21;45.95;97498.66;4823335;29;20312;-86
2023/09/29 11:24:09;;;;;;;3.85;3.50;;;;;;;26.98;46.84;97500.38;4845899;29;20188;-85
2023/09/29 11:26:38;;;;;;;3.80;3.13;;;;;;;26.89;46.76;97511.25;4849360;29;20256;-86
2023/09/29 11:29:04;;;;;;;3.72;3.08;;;;;;;26.62;47.50;97505.59;4847194;29;20170;-85
2023/09/29 11:31:29;;;;;;;3.53;3.22;;;;;;;26.53;47.22;97495.03;4834350;29;20236;-86
2023/09/29 11:33:56;;;;;;;3.45;3.15;;;;;;;26.47;48.53;97483.03;4842448;29;20238;-84